sensor_id;sensor_type;location;lat;lon;timestamp;pressure;altitude;pressure_sealevel;temperature;humidity
52949;BME280;38812;50.942;3.644;2023-05-23T00:02:00;102041.78;;;12.04;100.00
52949;BME280;38812;50.942;3.644;2023-05-23T00:04:26;102047.91;;;12.09;100.00
52949;BME280;38812;50.942;3.644;2023-05-23T00:06:52;102051.34;;;12.17;100.00
52949;BME280;38812;50.942;3.644;2023-05-23T00:09:18;102058.38;;;12.13;100.00
52949;BME280;38812;50.942;3.644;2023-05-23T00:11:43;102054.81;;;12.22;100.00
52949;BME280;38812;50.942;3.644;2023-05-23T00:14:13;102063.56;;;12.24;100.00
52949;BME280;38812;50.942;3.644;2023-05-23T00:16:42;102051.31;;;12.20;100.00
52949;BME280;38812;50.942;3.644;2023-05-23T00:19:10;102055.69;;;12.21;100.00
52949;BME280;38812;50.942;3.644;2023-05-23T00:21:36;102057.44;;;12.22;100.00
52949;BME280;38812;50.942;3.644;2023-05-23T00:24:01;102056.50;;;12.32;100.00
52949;BME280;38812;50.942;3.644;2023-05-23T00:26:27;102058.13;;;12.42;100.00
52949;BME280;38812;50.942;3.644;2023-05-23T00:28:56;102038.16;;;12.17;100.00
52949;BME280;38812;50.942;3.644;2023-05-23T00:31:22;102054.78;;;12.25;100.00
52949;BME280;38812;50.942;3.644;2023-05-23T00:33:47;102060.94;;;12.24;100.00
52949;BME280;38812;50.942;3.644;2023-05-23T00:36:12;102070.63;;;12.19;100.00
52949;BME280;38812;50.942;3.644;2023-05-23T00:38:38;102066.19;;;12.27;100.00
52949;BME280;38812;50.942;3.644;2023-05-23T00:41:07;102073.19;;;12.29;100.00
52949;BME280;38812;50.942;3.644;2023-05-23T00:43:32;102071.44;;;12.31;100.00
52949;BME280;38812;50.942;3.644;2023-05-23T00:45:58;102073.22;;;12.28;100.00
52949;BME280;38812;50.942;3.644;2023-05-23T00:48:25;102066.22;;;12.24;100.00
52949;BME280;38812;50.942;3.644;2023-05-23T00:50:51;102073.03;;;12.46;100.00
52949;BME280;38812;50.942;3.644;2023-05-23T00:53:16;102072.22;;;12.38;100.00
52949;BME280;38812;50.942;3.644;2023-05-23T00:55:43;102080.91;;;12.52;100.00
52949;BME280;38812;50.942;3.644;2023-05-23T00:58:09;102081.00;;;12.40;100.00
52949;BME280;38812;50.942;3.644;2023-05-23T01:00:35;102073.06;;;12.42;100.00
52949;BME280;38812;50.942;3.644;2023-05-23T01:03:03;102074.81;;;12.43;100.00
52949;BME280;38812;50.942;3.644;2023-05-23T01:05:29;102084.53;;;12.36;100.00
52949;BME280;38812;50.942;3.644;2023-05-23T01:07:55;102080.97;;;12.43;100.00
52949;BME280;38812;50.942;3.644;2023-05-23T01:10:30;102080.22;;;12.29;100.00
52949;BME280;38812;50.942;3.644;2023-05-23T01:15:33;102072.25;;;12.35;100.00
52949;BME280;38812;50.942;3.644;2023-05-23T01:18:28;102084.53;;;12.34;100.00
52949;BME280;38812;50.942;3.644;2023-05-23T01:20:56;102088.06;;;12.35;100.00
52949;BME280;38812;50.942;3.644;2023-05-23T01:28:45;102092.56;;;12.22;100.00
52949;BME280;38812;50.942;3.644;2023-05-23T01:31:11;102096.91;;;12.28;100.00
52949;BME280;38812;50.942;3.644;2023-05-23T01:33:39;102090.66;;;12.38;100.00
52949;BME280;38812;50.942;3.644;2023-05-23T01:36:05;102085.41;;;12.38;100.00
52949;BME280;38812;50.942;3.644;2023-05-23T01:38:32;102089.75;;;12.45;100.00
52949;BME280;38812;50.942;3.644;2023-05-23T01:40:57;102088.03;;;12.38;100.00
52949;BME280;38812;50.942;3.644;2023-05-23T01:43:23;102094.09;;;12.49;100.00
52949;BME280;38812;50.942;3.644;2023-05-23T01:45:53;102091.63;;;12.34;100.00
52949;BME280;38812;50.942;3.644;2023-05-23T01:48:20;102097.59;;;12.51;100.00
52949;BME280;38812;50.942;3.644;2023-05-23T01:50:47;102099.47;;;12.37;100.00
52949;BME280;38812;50.942;3.644;2023-05-23T01:53:15;102091.53;;;12.39;100.00
52949;BME280;38812;50.942;3.644;2023-05-23T01:55:41;102093.25;;;12.47;100.00
52949;BME280;38812;50.942;3.644;2023-05-23T01:58:07;102073.06;;;12.45;100.00
52949;BME280;38812;50.942;3.644;2023-05-23T02:00:33;102084.50;;;12.39;100.00
52949;BME280;38812;50.942;3.644;2023-05-23T02:02:58;102084.41;;;12.51;100.00
52949;BME280;38812;50.942;3.644;2023-05-23T02:05:24;102082.69;;;12.47;100.00
52949;BME280;38812;50.942;3.644;2023-05-23T02:07:49;102087.91;;;12.53;100.00
52949;BME280;38812;50.942;3.644;2023-05-23T02:10:15;102094.97;;;12.51;100.00
52949;BME280;38812;50.942;3.644;2023-05-23T02:12:40;102100.22;;;12.51;100.00
52949;BME280;38812;50.942;3.644;2023-05-23T02:15:06;102100.22;;;12.51;100.00
52949;BME280;38812;50.942;3.644;2023-05-23T02:17:32;102095.78;;;12.56;100.00
52949;BME280;38812;50.942;3.644;2023-05-23T02:19:58;102101.84;;;12.66;100.00
52949;BME280;38812;50.942;3.644;2023-05-23T02:22:23;102100.16;;;12.56;100.00
52949;BME280;38812;50.942;3.644;2023-05-23T02:24:50;102107.19;;;12.57;100.00
52949;BME280;38812;50.942;3.644;2023-05-23T02:27:15;102112.53;;;12.52;100.00
52949;BME280;38812;50.942;3.644;2023-05-23T02:29:41;102113.41;;;12.54;100.00
52949;BME280;38812;50.942;3.644;2023-05-23T02:32:06;102108.16;;;12.50;100.00
52949;BME280;38812;50.942;3.644;2023-05-23T02:34:32;102102.63;;;12.77;100.00
52949;BME280;38812;50.942;3.644;2023-05-23T02:36:57;102106.28;;;12.61;100.00
52949;BME280;38812;50.942;3.644;2023-05-23T02:39:22;102109.03;;;12.50;100.00
52949;BME280;38812;50.942;3.644;2023-05-23T02:41:48;102108.91;;;12.62;100.00
52949;BME280;38812;50.942;3.644;2023-05-23T02:44:13;102115.16;;;12.54;100.00
52949;BME280;38812;50.942;3.644;2023-05-23T02:46:39;102115.94;;;12.60;100.00
52949;BME280;38812;50.942;3.644;2023-05-23T02:49:04;102120.31;;;12.66;100.00
52949;BME280;38812;50.942;3.644;2023-05-23T02:51:29;102116.06;;;12.48;100.00
52949;BME280;38812;50.942;3.644;2023-05-23T02:53:56;102127.53;;;12.43;100.00
52949;BME280;38812;50.942;3.644;2023-05-23T02:56:21;102125.75;;;12.46;100.00
52949;BME280;38812;50.942;3.644;2023-05-23T02:58:47;102123.09;;;12.49;100.00
52949;BME280;38812;50.942;3.644;2023-05-23T03:01:12;102127.47;;;12.52;100.00
52949;BME280;38812;50.942;3.644;2023-05-23T03:03:38;102124.06;;;12.38;100.00
52949;BME280;38812;50.942;3.644;2023-05-23T03:06:06;102130.16;;;12.44;100.00
52949;BME280;38812;50.942;3.644;2023-05-23T03:08:31;102130.00;;;12.62;100.00
52949;BME280;38812;50.942;3.644;2023-05-23T03:10:56;102121.31;;;12.51;100.00
52949;BME280;38812;50.942;3.644;2023-05-23T03:13:22;102123.09;;;12.49;100.00
52949;BME280;38812;50.942;3.644;2023-05-23T03:15:47;102125.75;;;12.46;100.00
52949;BME280;38812;50.942;3.644;2023-05-23T03:18:13;102114.41;;;12.35;100.00
52949;BME280;38812;50.942;3.644;2023-05-23T03:20:38;102127.56;;;12.38;100.00
52949;BME280;38812;50.942;3.644;2023-05-23T03:23:04;102127.56;;;12.40;100.00
52949;BME280;38812;50.942;3.644;2023-05-23T03:25:29;102114.22;;;12.56;100.00
52949;BME280;38812;50.942;3.644;2023-05-23T03:27:55;102111.66;;;12.52;100.00
52949;BME280;38812;50.942;3.644;2023-05-23T03:30:20;102122.19;;;12.53;100.00
52949;BME280;38812;50.942;3.644;2023-05-23T03:32:46;102129.25;;;12.47;100.00
52949;BME280;38812;50.942;3.644;2023-05-23T03:35:11;102130.16;;;12.44;100.00
52949;BME280;38812;50.942;3.644;2023-05-23T03:37:37;102118.72;;;12.48;100.00
52949;BME280;38812;50.942;3.644;2023-05-23T03:40:03;102125.75;;;12.45;100.00
52949;BME280;38812;50.942;3.644;2023-05-23T03:42:29;102130.00;;;12.59;100.00
52949;BME280;38812;50.942;3.644;2023-05-23T03:44:55;102131.88;;;12.51;100.00
52949;BME280;38812;50.942;3.644;2023-05-23T03:47:21;102130.13;;;12.47;100.00
52949;BME280;38812;50.942;3.644;2023-05-23T03:49:48;102129.13;;;12.59;100.00
52949;BME280;38812;50.942;3.644;2023-05-23T03:52:13;102135.38;;;12.53;100.00
52949;BME280;38812;50.942;3.644;2023-05-23T03:54:39;102130.19;;;12.41;100.00
52949;BME280;38812;50.942;3.644;2023-05-23T03:57:04;102142.44;;;12.45;100.00
52949;BME280;38812;50.942;3.644;2023-05-23T03:59:29;102154.63;;;12.58;100.00
52949;BME280;38812;50.942;3.644;2023-05-23T04:01:55;102153.91;;;12.38;100.00
52949;BME280;38812;50.942;3.644;2023-05-23T04:04:23;102151.28;;;12.38;100.00
52949;BME280;38812;50.942;3.644;2023-05-23T04:06:49;102153.97;;;12.33;100.00
52949;BME280;38812;50.942;3.644;2023-05-23T04:09:15;102160.91;;;12.44;100.00
52949;BME280;38812;50.942;3.644;2023-05-23T04:11:41;102159.28;;;12.29;100.00
52949;BME280;38812;50.942;3.644;2023-05-23T04:14:06;102157.44;;;12.35;100.00
52949;BME280;38812;50.942;3.644;2023-05-23T04:16:32;102154.88;;;12.28;100.00
52949;BME280;38812;50.942;3.644;2023-05-23T04:19:00;102162.81;;;12.26;100.00
52949;BME280;38812;50.942;3.644;2023-05-23T04:21:26;102167.06;;;12.44;100.00
52949;BME280;38812;50.942;3.644;2023-05-23T04:23:52;102153.94;;;12.35;100.00
52949;BME280;38812;50.942;3.644;2023-05-23T04:26:17;102159.28;;;12.30;100.00
52949;BME280;38812;50.942;3.644;2023-05-23T04:28:43;102159.19;;;12.38;100.00
52949;BME280;38812;50.942;3.644;2023-05-23T04:31:10;102160.16;;;12.28;100.00
52949;BME280;38812;50.942;3.644;2023-05-23T04:33:36;102168.97;;;12.21;100.00
52949;BME280;38812;50.942;3.644;2023-05-23T04:36:02;102156.66;;;12.26;100.00
52949;BME280;38812;50.942;3.644;2023-05-23T04:38:27;102165.44;;;12.25;100.00
52949;BME280;38812;50.942;3.644;2023-05-23T04:40:53;102163.72;;;12.18;100.00
52949;BME280;38812;50.942;3.644;2023-05-23T04:43:18;102176.00;;;12.22;100.00
52949;BME280;38812;50.942;3.644;2023-05-23T04:45:46;102171.59;;;12.25;100.00
52949;BME280;38812;50.942;3.644;2023-05-23T04:48:11;102190.03;;;12.24;100.00
52949;BME280;38812;50.942;3.644;2023-05-23T04:50:41;102182.19;;;12.16;100.00
52949;BME280;38812;50.942;3.644;2023-05-23T04:53:06;102176.03;;;12.16;100.00
52949;BME280;38812;50.942;3.644;2023-05-23T04:55:32;102178.66;;;12.16;100.00
52949;BME280;38812;50.942;3.644;2023-05-23T04:57:58;102191.84;;;12.16;100.00
52949;BME280;38812;50.942;3.644;2023-05-23T05:00:25;102204.97;;;12.22;100.00
52949;BME280;38812;50.942;3.644;2023-05-23T05:02:50;102198.88;;;12.17;100.00
52949;BME280;38812;50.942;3.644;2023-05-23T05:05:16;102189.25;;;12.10;100.00
52949;BME280;38812;50.942;3.644;2023-05-23T05:07:41;102187.47;;;12.15;100.00
52949;BME280;38812;50.942;3.644;2023-05-23T05:10:07;102197.16;;;12.11;100.00
52949;BME280;38812;50.942;3.644;2023-05-23T05:12:33;102196.22;;;12.17;100.00
52949;BME280;38812;50.942;3.644;2023-05-23T05:14:58;102190.94;;;12.21;100.00
52949;BME280;38812;50.942;3.644;2023-05-23T05:17:24;102201.56;;;12.12;100.00
52949;BME280;38812;50.942;3.644;2023-05-23T05:19:49;102201.50;;;12.15;100.00
52949;BME280;38812;50.942;3.644;2023-05-23T05:22:15;102210.25;;;12.20;100.00
52949;BME280;38812;50.942;3.644;2023-05-23T05:24:40;102220.75;;;12.28;100.00
52949;BME280;38812;50.942;3.644;2023-05-23T05:27:06;102220.81;;;12.19;100.00
52949;BME280;38812;50.942;3.644;2023-05-23T05:29:33;102219.03;;;12.19;100.00
52949;BME280;38812;50.942;3.644;2023-05-23T05:31:59;102219.06;;;12.16;100.00
52949;BME280;38812;50.942;3.644;2023-05-23T05:34:25;102216.44;;;12.16;100.00
52949;BME280;38812;50.942;3.644;2023-05-23T05:36:51;102215.63;;;12.07;100.00
52949;BME280;38812;50.942;3.644;2023-05-23T05:39:21;102221.75;;;12.12;100.00
52949;BME280;38812;50.942;3.644;2023-05-23T05:41:47;102223.44;;;12.19;100.00
52949;BME280;38812;50.942;3.644;2023-05-23T05:44:13;102224.34;;;12.16;100.00
52949;BME280;38812;50.942;3.644;2023-05-23T05:46:38;102226.94;;;12.21;100.00
52949;BME280;38812;50.942;3.644;2023-05-23T05:49:03;102231.31;;;12.29;100.00
52949;BME280;38812;50.942;3.644;2023-05-23T05:51:29;102236.53;;;12.34;100.00
52949;BME280;38812;50.942;3.644;2023-05-23T05:53:55;102240.03;;;12.36;100.00
52949;BME280;38812;50.942;3.644;2023-05-23T05:56:21;102233.81;;;12.48;100.00
52949;BME280;38812;50.942;3.644;2023-05-23T05:58:46;102252.22;;;12.55;100.00
52949;BME280;38812;50.942;3.644;2023-05-23T06:01:12;102240.84;;;12.47;100.00
52949;BME280;38812;50.942;3.644;2023-05-23T06:03:38;102248.84;;;12.32;100.00
52949;BME280;38812;50.942;3.644;2023-05-23T06:06:04;102258.53;;;12.30;100.00
52949;BME280;38812;50.942;3.644;2023-05-23T06:08:29;102271.69;;;12.33;100.00
52949;BME280;38812;50.942;3.644;2023-05-23T06:10:54;102248.78;;;12.38;100.00
52949;BME280;38812;50.942;3.644;2023-05-23T06:13:21;102252.28;;;12.45;100.00
52949;BME280;38812;50.942;3.644;2023-05-23T06:15:46;102269.06;;;12.30;100.00
52949;BME280;38812;50.942;3.644;2023-05-23T06:18:11;102259.41;;;12.30;100.00
52949;BME280;38812;50.942;3.644;2023-05-23T06:20:37;102263.81;;;12.27;100.00
52949;BME280;38812;50.942;3.644;2023-05-23T06:23:02;102267.25;;;12.38;100.00
52949;BME280;38812;50.942;3.644;2023-05-23T06:25:30;102260.28;;;12.28;100.00
52949;BME280;38812;50.942;3.644;2023-05-23T06:27:55;102268.16;;;12.34;100.00
52949;BME280;38812;50.942;3.644;2023-05-23T06:30:20;102270.72;;;12.45;100.00
52949;BME280;38812;50.942;3.644;2023-05-23T06:32:47;102268.06;;;12.51;100.00
52949;BME280;38812;50.942;3.644;2023-05-23T06:35:12;102277.75;;;12.47;100.00
52949;BME280;38812;50.942;3.644;2023-05-23T06:37:38;102279.41;;;12.57;100.00
52949;BME280;38812;50.942;3.644;2023-05-23T06:40:07;102285.56;;;12.61;100.00
52949;BME280;38812;50.942;3.644;2023-05-23T06:42:33;102281.16;;;12.58;100.00
52949;BME280;38812;50.942;3.644;2023-05-23T06:44:59;102272.38;;;12.58;100.00
52949;BME280;38812;50.942;3.644;2023-05-23T06:47:24;102275.72;;;12.86;100.00
52949;BME280;38812;50.942;3.644;2023-05-23T06:49:49;102279.03;;;13.15;100.00
52949;BME280;38812;50.942;3.644;2023-05-23T06:52:15;102283.28;;;13.27;100.00
52949;BME280;38812;50.942;3.644;2023-05-23T06:54:40;102280.66;;;13.27;100.00
52949;BME280;38812;50.942;3.644;2023-05-23T06:57:06;102285.88;;;13.34;100.00
52949;BME280;38812;50.942;3.644;2023-05-23T06:59:31;102282.28;;;13.42;100.00
52949;BME280;38812;50.942;3.644;2023-05-23T07:01:56;102295.59;;;13.28;100.00
52949;BME280;38812;50.942;3.644;2023-05-23T07:04:22;102293.06;;;13.19;100.00
52949;BME280;38812;50.942;3.644;2023-05-23T07:06:47;102303.56;;;13.23;100.00
52949;BME280;38812;50.942;3.644;2023-05-23T07:09:12;102310.84;;;12.91;100.00
52949;BME280;38812;50.942;3.644;2023-05-23T07:11:38;102313.47;;;12.94;100.00
52949;BME280;38812;50.942;3.644;2023-05-23T07:14:05;102333.81;;;12.75;100.00
52949;BME280;38812;50.942;3.644;2023-05-23T07:16:32;102318.81;;;12.82;100.00
52949;BME280;38812;50.942;3.644;2023-05-23T07:18:57;102321.47;;;12.79;100.00
52949;BME280;38812;50.942;3.644;2023-05-23T07:21:25;102318.06;;;12.58;100.00
52949;BME280;38812;50.942;3.644;2023-05-23T07:23:50;102320.75;;;12.55;100.00
52949;BME280;38812;50.942;3.644;2023-05-23T07:26:15;102319.91;;;12.50;100.00
52949;BME280;38812;50.942;3.644;2023-05-23T07:28:41;102322.53;;;12.55;100.00
52949;BME280;38812;50.942;3.644;2023-05-23T07:31:06;102318.94;;;12.60;100.00
52949;BME280;38812;50.942;3.644;2023-05-23T07:33:33;102320.69;;;12.63;100.00
52949;BME280;38812;50.942;3.644;2023-05-23T07:35:59;102318.94;;;12.62;100.00
52949;BME280;38812;50.942;3.644;2023-05-23T07:38:25;102318.88;;;12.77;100.00
52949;BME280;38812;50.942;3.644;2023-05-23T07:40:51;102316.94;;;12.99;100.00
52949;BME280;38812;50.942;3.644;2023-05-23T07:43:16;102322.19;;;13.00;100.00
52949;BME280;38812;50.942;3.644;2023-05-23T07:45:42;102329.28;;;12.94;100.00
52949;BME280;38812;50.942;3.644;2023-05-23T07:48:08;102317.00;;;12.91;100.00
52949;BME280;38812;50.942;3.644;2023-05-23T07:50:33;102315.16;;;12.99;100.00
52949;BME280;38812;50.942;3.644;2023-05-23T07:52:59;102331.91;;;12.97;100.00
52949;BME280;38812;50.942;3.644;2023-05-23T07:55:24;102324.88;;;12.96;100.00
52949;BME280;38812;50.942;3.644;2023-05-23T07:57:50;102323.91;;;13.08;100.00
52949;BME280;38812;50.942;3.644;2023-05-23T08:00:17;102325.69;;;13.02;100.00
52949;BME280;38812;50.942;3.644;2023-05-23T08:02:42;102323.91;;;13.06;100.00
52949;BME280;38812;50.942;3.644;2023-05-23T08:05:08;102324.00;;;12.95;100.00
52949;BME280;38812;50.942;3.644;2023-05-23T08:07:33;102322.31;;;12.85;100.00
52949;BME280;38812;50.942;3.644;2023-05-23T08:09:59;102339.03;;;12.83;100.00
52949;BME280;38812;50.942;3.644;2023-05-23T08:12:24;102328.41;;;12.92;100.00
52949;BME280;38812;50.942;3.644;2023-05-23T08:14:50;102334.59;;;12.86;100.00
52949;BME280;38812;50.942;3.644;2023-05-23T08:17:15;102324.16;;;12.76;100.00
52949;BME280;38812;50.942;3.644;2023-05-23T08:19:40;102327.63;;;12.78;100.00
52949;BME280;38812;50.942;3.644;2023-05-23T08:22:06;102329.34;;;12.83;100.00
52949;BME280;38812;50.942;3.644;2023-05-23T08:24:31;102337.34;;;12.76;100.00
52949;BME280;38812;50.942;3.644;2023-05-23T08:26:58;102341.63;;;12.90;100.00
52949;BME280;38812;50.942;3.644;2023-05-23T08:29:23;102329.50;;;12.59;100.00
52949;BME280;38812;50.942;3.644;2023-05-23T08:31:49;102337.50;;;12.47;100.00
52949;BME280;38812;50.942;3.644;2023-05-23T08:34:14;102326.09;;;12.40;100.00
52949;BME280;38812;50.942;3.644;2023-05-23T08:36:40;102342.88;;;12.21;100.00
52949;BME280;38812;50.942;3.644;2023-05-23T08:39:07;102341.09;;;12.26;100.00
52949;BME280;38812;50.942;3.644;2023-05-23T08:41:33;102336.75;;;12.13;100.00
52949;BME280;38812;50.942;3.644;2023-05-23T08:43:59;102350.78;;;12.24;100.00
52949;BME280;38812;50.942;3.644;2023-05-23T08:46:25;102341.00;;;12.47;100.00
52949;BME280;38812;50.942;3.644;2023-05-23T08:48:53;102354.94;;;12.70;100.00
52949;BME280;38812;50.942;3.644;2023-05-23T08:51:24;102343.34;;;12.97;100.00
52949;BME280;38812;50.942;3.644;2023-05-23T08:53:50;102354.66;;;13.10;100.00
52949;BME280;38812;50.942;3.644;2023-05-23T08:56:18;102338.81;;;13.19;100.00
52949;BME280;38812;50.942;3.644;2023-05-23T08:58:44;102352.38;;;13.71;100.00
52949;BME280;38812;50.942;3.644;2023-05-23T09:01:12;102347.50;;;14.15;100.00
52949;BME280;38812;50.942;3.644;2023-05-23T09:03:39;102347.63;;;14.07;100.00
52949;BME280;38812;50.942;3.644;2023-05-23T09:06:06;102346.69;;;14.10;100.00
52949;BME280;38812;50.942;3.644;2023-05-23T09:08:32;102341.84;;;14.47;100.00
52949;BME280;38812;50.942;3.644;2023-05-23T09:10:57;102348.94;;;14.45;100.00
52949;BME280;38812;50.942;3.644;2023-05-23T09:13:23;102338.28;;;14.49;100.00
52949;BME280;38812;50.942;3.644;2023-05-23T09:18:25;102341.72;;;14.54;100.00
52949;BME280;38812;50.942;3.644;2023-05-23T09:20:51;102345.16;;;14.62;100.00
52949;BME280;38812;50.942;3.644;2023-05-23T09:23:17;102329.63;;;14.98;100.00
52949;BME280;38812;50.942;3.644;2023-05-23T09:25:46;102350.31;;;15.28;100.00
52949;BME280;38812;50.942;3.644;2023-05-23T09:28:12;102350.91;;;15.44;100.00
52949;BME280;38812;50.942;3.644;2023-05-23T09:30:37;102348.34;;;15.39;100.00
52949;BME280;38812;50.942;3.644;2023-05-23T09:33:03;102355.94;;;15.07;100.00
52949;BME280;38812;50.942;3.644;2023-05-23T09:35:28;102361.41;;;14.96;100.00
52949;BME280;38812;50.942;3.644;2023-05-23T09:37:55;102355.59;;;15.28;100.00
52949;BME280;38812;50.942;3.644;2023-05-23T09:40:30;102352.56;;;16.00;100.00
52949;BME280;38812;50.942;3.644;2023-05-23T09:43:01;102350.69;;;16.04;100.00
52949;BME280;38812;50.942;3.644;2023-05-23T09:45:32;102353.63;;;14.87;100.00
52949;BME280;38812;50.942;3.644;2023-05-23T09:47:57;102356.50;;;14.70;100.00
52949;BME280;38812;50.942;3.644;2023-05-23T09:50:25;102355.94;;;14.49;100.00
52949;BME280;38812;50.942;3.644;2023-05-23T09:52:54;102364.94;;;14.29;100.00
52949;BME280;38812;50.942;3.644;2023-05-23T09:55:20;102364.19;;;14.89;100.00
52949;BME280;38812;50.942;3.644;2023-05-23T09:57:50;102367.94;;;15.29;100.00
52949;BME280;38812;50.942;3.644;2023-05-23T10:00:17;102371.81;;;15.62;100.00
52949;BME280;38812;50.942;3.644;2023-05-23T10:05:47;102369.50;;;16.78;100.00
52949;BME280;38812;50.942;3.644;2023-05-23T10:08:24;102371.94;;;16.89;100.00
52949;BME280;38812;50.942;3.644;2023-05-23T10:13:25;102395.97;;;16.81;100.00
52949;BME280;38812;50.942;3.644;2023-05-23T10:15:56;102360.66;;;17.84;100.00
52949;BME280;38812;50.942;3.644;2023-05-23T10:18:24;102356.41;;;17.09;100.00
52949;BME280;38812;50.942;3.644;2023-05-23T10:20:53;102358.31;;;17.38;100.00
52949;BME280;38812;50.942;3.644;2023-05-23T10:23:21;102364.50;;;16.23;100.00
52949;BME280;38812;50.942;3.644;2023-05-23T10:25:47;102370.72;;;15.74;100.00
52949;BME280;38812;50.942;3.644;2023-05-23T10:28:13;102370.84;;;15.68;100.00
52949;BME280;38812;50.942;3.644;2023-05-23T10:30:39;102362.81;;;16.19;100.00
52949;BME280;38812;50.942;3.644;2023-05-23T10:33:05;102371.75;;;15.65;100.00
52949;BME280;38812;50.942;3.644;2023-05-23T10:35:49;102374.59;;;16.02;100.00
52949;BME280;38812;50.942;3.644;2023-05-23T10:38:33;102359.19;;;17.38;100.00
52949;BME280;38812;50.942;3.644;2023-05-23T10:41:10;102371.84;;;18.87;100.00
52949;BME280;38812;50.942;3.644;2023-05-23T10:46:11;102363.72;;;16.58;100.00
52949;BME280;38812;50.942;3.644;2023-05-23T10:48:41;102365.63;;;17.64;100.00
52949;BME280;38812;50.942;3.644;2023-05-23T10:51:08;102367.19;;;18.65;100.00
52949;BME280;38812;50.942;3.644;2023-05-23T10:53:37;102357.28;;;19.52;100.00
52949;BME280;38812;50.942;3.644;2023-05-23T10:56:10;102363.84;;;19.69;91.13
52949;BME280;38812;50.942;3.644;2023-05-23T10:58:38;102361.25;;;19.13;95.75
52949;BME280;38812;50.942;3.644;2023-05-23T11:01:07;102369.03;;;19.19;92.60
52949;BME280;38812;50.942;3.644;2023-05-23T11:03:49;102361.59;;;17.83;93.57
52949;BME280;38812;50.942;3.644;2023-05-23T11:06:38;102361.84;;;17.74;98.98
52949;BME280;38812;50.942;3.644;2023-05-23T11:09:18;102375.13;;;17.03;100.00
52949;BME280;38812;50.942;3.644;2023-05-23T11:11:54;102371.84;;;16.90;100.00
52949;BME280;38812;50.942;3.644;2023-05-23T11:16:51;102385.31;;;16.41;100.00
52949;BME280;38812;50.942;3.644;2023-05-23T11:21:48;102380.63;;;16.94;100.00
52949;BME280;38812;50.942;3.644;2023-05-23T11:24:14;102378.44;;;16.74;100.00
52949;BME280;38812;50.942;3.644;2023-05-23T11:26:39;102382.34;;;16.96;100.00
52949;BME280;38812;50.942;3.644;2023-05-23T11:29:15;102389.38;;;16.99;100.00
52949;BME280;38812;50.942;3.644;2023-05-23T11:31:41;102386.66;;;17.37;99.76
52949;BME280;38812;50.942;3.644;2023-05-23T11:34:06;102384.28;;;17.61;95.68
52949;BME280;38812;50.942;3.644;2023-05-23T11:36:32;102380.13;;;17.15;100.00
52949;BME280;38812;50.942;3.644;2023-05-23T11:39:01;102395.06;;;17.55;100.00
52949;BME280;38812;50.942;3.644;2023-05-23T11:41:28;102387.78;;;17.29;95.51
52949;BME280;38812;50.942;3.644;2023-05-23T11:43:54;102379.97;;;17.21;92.91
52949;BME280;38812;50.942;3.644;2023-05-23T11:46:20;102377.63;;;19.01;94.49
52949;BME280;38812;50.942;3.644;2023-05-23T11:48:46;102381.75;;;18.23;92.86
52949;BME280;38812;50.942;3.644;2023-05-23T11:51:12;102379.28;;;18.17;89.35
52949;BME280;38812;50.942;3.644;2023-05-23T11:53:37;102389.34;;;19.23;82.54
52949;BME280;38812;50.942;3.644;2023-05-23T11:56:03;102380.75;;;18.56;80.06
52949;BME280;38812;50.942;3.644;2023-05-23T11:58:30;102379.84;;;17.61;88.42
52949;BME280;38812;50.942;3.644;2023-05-23T12:01:01;102375.75;;;16.75;90.26
52949;BME280;38812;50.942;3.644;2023-05-23T12:03:27;102381.88;;;17.16;90.79
52949;BME280;38812;50.942;3.644;2023-05-23T12:05:56;102374.75;;;16.81;93.84
52949;BME280;38812;50.942;3.644;2023-05-23T12:08:22;102381.72;;;17.22;90.21
52949;BME280;38812;50.942;3.644;2023-05-23T12:10:55;102377.69;;;18.09;91.13
52949;BME280;38812;50.942;3.644;2023-05-23T12:13:25;102388.19;;;18.45;83.27
52949;BME280;38812;50.942;3.644;2023-05-23T12:15:58;102388.56;;;16.95;89.23
52949;BME280;38812;50.942;3.644;2023-05-23T12:18:27;102389.94;;;16.31;94.08
52949;BME280;38812;50.942;3.644;2023-05-23T12:20:54;102384.00;;;17.02;92.41
52949;BME280;38812;50.942;3.644;2023-05-23T12:23:23;102383.59;;;17.88;91.39
52949;BME280;38812;50.942;3.644;2023-05-23T12:25:52;102375.25;;;18.92;86.00
52949;BME280;38812;50.942;3.644;2023-05-23T12:28:19;102381.16;;;17.45;87.47
52949;BME280;38812;50.942;3.644;2023-05-23T12:30:45;102388.97;;;16.77;92.39
52949;BME280;38812;50.942;3.644;2023-05-23T12:33:11;102390.16;;;18.07;89.31
52949;BME280;38812;50.942;3.644;2023-05-23T12:35:37;102394.63;;;18.38;91.30
52949;BME280;38812;50.942;3.644;2023-05-23T12:38:05;102386.47;;;18.73;83.62
52949;BME280;38812;50.942;3.644;2023-05-23T12:40:34;102388.63;;;19.18;80.94
52949;BME280;38812;50.942;3.644;2023-05-23T12:42:59;102386.66;;;18.67;79.18
52949;BME280;38812;50.942;3.644;2023-05-23T12:45:34;102390.41;;;17.66;85.99
52949;BME280;38812;50.942;3.644;2023-05-23T12:48:06;102391.47;;;19.12;83.86
52949;BME280;38812;50.942;3.644;2023-05-23T12:50:32;102384.81;;;18.99;83.81
52949;BME280;38812;50.942;3.644;2023-05-23T12:52:57;102396.22;;;18.43;83.27
52949;BME280;38812;50.942;3.644;2023-05-23T12:55:23;102385.59;;;18.42;83.12
52949;BME280;38812;50.942;3.644;2023-05-23T12:57:49;102386.94;;;17.96;77.11
52949;BME280;38812;50.942;3.644;2023-05-23T13:00:15;102391.47;;;18.24;82.96
52949;BME280;38812;50.942;3.644;2023-05-23T13:02:40;102387.63;;;18.34;80.53